sensor_id;sensor_type;location;lat;lon;timestamp;P1;durP1;ratioP1;P2;durP2;ratioP2
68757;SDS011;55747;51.998;4.466;2022-10-17T00:01:36;12.77;;;8.40;;
68757;SDS011;55747;51.998;4.466;2022-10-17T00:04:01;13.97;;;8.60;;
68757;SDS011;55747;51.998;4.466;2022-10-17T00:06:26;12.98;;;7.93;;
68757;SDS011;55747;51.998;4.466;2022-10-17T00:08:52;12.97;;;8.90;;
68757;SDS011;55747;51.998;4.466;2022-10-17T00:11:18;11.70;;;9.07;;
68757;SDS011;55747;51.998;4.466;2022-10-17T00:13:46;13.73;;;8.73;;
68757;SDS011;55747;51.998;4.466;2022-10-17T00:16:13;13.80;;;8.50;;
68757;SDS011;55747;51.998;4.466;2022-10-17T00:18:39;12.32;;;9.05;;
68757;SDS011;55747;51.998;4.466;2022-10-17T00:21:04;12.75;;;8.85;;
68757;SDS011;55747;51.998;4.466;2022-10-17T00:23:30;15.35;;;9.48;;
68757;SDS011;55747;51.998;4.466;2022-10-17T00:25:59;12.10;;;9.05;;
68757;SDS011;55747;51.998;4.466;2022-10-17T00:28:25;13.07;;;9.38;;
68757;SDS011;55747;51.998;4.466;2022-10-17T00:30:54;12.63;;;9.43;;
68757;SDS011;55747;51.998;4.466;2022-10-17T00:33:24;13.30;;;10.32;;
68757;SDS011;55747;51.998;4.466;2022-10-17T00:35:50;16.08;;;10.38;;
68757;SDS011;55747;51.998;4.466;2022-10-17T00:38:15;12.48;;;11.10;;
68757;SDS011;55747;51.998;4.466;2022-10-17T00:40:40;12.53;;;10.60;;
68757;SDS011;55747;51.998;4.466;2022-10-17T00:43:12;14.20;;;10.38;;
68757;SDS011;55747;51.998;4.466;2022-10-17T00:45:40;13.05;;;10.68;;
68757;SDS011;55747;51.998;4.466;2022-10-17T00:48:06;15.57;;;11.40;;
68757;SDS011;55747;51.998;4.466;2022-10-17T00:50:35;16.80;;;11.18;;
68757;SDS011;55747;51.998;4.466;2022-10-17T00:53:01;15.38;;;11.90;;
68757;SDS011;55747;51.998;4.466;2022-10-17T00:55:30;17.52;;;11.70;;
68757;SDS011;55747;51.998;4.466;2022-10-17T00:57:57;19.30;;;11.98;;
68757;SDS011;55747;51.998;4.466;2022-10-17T01:00:25;18.05;;;11.98;;
68757;SDS011;55747;51.998;4.466;2022-10-17T01:02:51;17.80;;;12.68;;
68757;SDS011;55747;51.998;4.466;2022-10-17T01:05:16;18.45;;;12.93;;
68757;SDS011;55747;51.998;4.466;2022-10-17T01:07:43;19.05;;;13.10;;
68757;SDS011;55747;51.998;4.466;2022-10-17T01:10:10;15.77;;;12.65;;
68757;SDS011;55747;51.998;4.466;2022-10-17T01:12:44;18.05;;;13.05;;
68757;SDS011;55747;51.998;4.466;2022-10-17T01:15:26;18.20;;;13.40;;
68757;SDS011;55747;51.998;4.466;2022-10-17T01:18:07;17.70;;;14.00;;
68757;SDS011;55747;51.998;4.466;2022-10-17T01:26:13;19.23;;;13.45;;
68757;SDS011;55747;51.998;4.466;2022-10-17T01:31:44;16.60;;;13.50;;
68757;SDS011;55747;51.998;4.466;2022-10-17T01:34:17;18.27;;;13.98;;
68757;SDS011;55747;51.998;4.466;2022-10-17T01:36:59;18.00;;;14.60;;
68757;SDS011;55747;51.998;4.466;2022-10-17T01:47:16;20.27;;;15.18;;
68757;SDS011;55747;51.998;4.466;2022-10-17T01:49:44;20.83;;;16.20;;
68757;SDS011;55747;51.998;4.466;2022-10-17T01:52:21;21.95;;;15.55;;
68757;SDS011;55747;51.998;4.466;2022-10-17T01:54:53;20.90;;;14.95;;
68757;SDS011;55747;51.998;4.466;2022-10-17T01:57:34;20.80;;;15.57;;
68757;SDS011;55747;51.998;4.466;2022-10-17T02:00:05;19.65;;;16.23;;
68757;SDS011;55747;51.998;4.466;2022-10-17T02:02:35;23.10;;;16.53;;
68757;SDS011;55747;51.998;4.466;2022-10-17T02:05:01;18.63;;;15.63;;
68757;SDS011;55747;51.998;4.466;2022-10-17T02:07:28;20.02;;;16.23;;
68757;SDS011;55747;51.998;4.466;2022-10-17T02:09:53;21.90;;;16.45;;
68757;SDS011;55747;51.998;4.466;2022-10-17T02:12:32;23.63;;;16.70;;
68757;SDS011;55747;51.998;4.466;2022-10-17T02:18:06;22.92;;;16.35;;
68757;SDS011;55747;51.998;4.466;2022-10-17T02:20:36;22.80;;;16.42;;
68757;SDS011;55747;51.998;4.466;2022-10-17T02:26:08;21.73;;;16.02;;
68757;SDS011;55747;51.998;4.466;2022-10-17T02:28:43;22.85;;;15.90;;
68757;SDS011;55747;51.998;4.466;2022-10-17T02:31:25;20.42;;;15.82;;
68757;SDS011;55747;51.998;4.466;2022-10-17T02:34:05;18.77;;;16.35;;
68757;SDS011;55747;51.998;4.466;2022-10-17T02:36:39;21.42;;;15.93;;
68757;SDS011;55747;51.998;4.466;2022-10-17T02:39:09;23.40;;;16.45;;
68757;SDS011;55747;51.998;4.466;2022-10-17T02:41:36;18.52;;;15.32;;
68757;SDS011;55747;51.998;4.466;2022-10-17T02:44:04;24.98;;;16.00;;
68757;SDS011;55747;51.998;4.466;2022-10-17T02:46:31;24.90;;;16.00;;
68757;SDS011;55747;51.998;4.466;2022-10-17T02:48:59;22.75;;;15.30;;
68757;SDS011;55747;51.998;4.466;2022-10-17T02:51:28;19.80;;;14.95;;
68757;SDS011;55747;51.998;4.466;2022-10-17T02:54:19;19.60;;;14.88;;
68757;SDS011;55747;51.998;4.466;2022-10-17T02:56:53;18.23;;;13.18;;
68757;SDS011;55747;51.998;4.466;2022-10-17T02:59:23;16.90;;;13.25;;
68757;SDS011;55747;51.998;4.466;2022-10-17T03:01:50;18.45;;;13.75;;
68757;SDS011;55747;51.998;4.466;2022-10-17T03:04:16;22.08;;;13.00;;
68757;SDS011;55747;51.998;4.466;2022-10-17T03:06:42;16.85;;;12.40;;
68757;SDS011;55747;51.998;4.466;2022-10-17T03:09:10;16.60;;;12.00;;
68757;SDS011;55747;51.998;4.466;2022-10-17T03:11:35;16.55;;;12.38;;
68757;SDS011;55747;51.998;4.466;2022-10-17T03:14:01;20.17;;;12.20;;
68757;SDS011;55747;51.998;4.466;2022-10-17T03:16:26;16.85;;;11.95;;
68757;SDS011;55747;51.998;4.466;2022-10-17T03:18:52;16.13;;;11.98;;
68757;SDS011;55747;51.998;4.466;2022-10-17T03:21:17;16.98;;;11.10;;
68757;SDS011;55747;51.998;4.466;2022-10-17T03:23:42;16.02;;;11.75;;
68757;SDS011;55747;51.998;4.466;2022-10-17T03:26:08;17.58;;;10.82;;
68757;SDS011;55747;51.998;4.466;2022-10-17T03:28:34;14.50;;;11.07;;
68757;SDS011;55747;51.998;4.466;2022-10-17T03:31:04;16.10;;;11.07;;
68757;SDS011;55747;51.998;4.466;2022-10-17T03:33:30;14.77;;;10.80;;
68757;SDS011;55747;51.998;4.466;2022-10-17T03:35:56;18.25;;;10.52;;
68757;SDS011;55747;51.998;4.466;2022-10-17T03:38:21;12.97;;;10.30;;
68757;SDS011;55747;51.998;4.466;2022-10-17T03:40:53;13.43;;;10.30;;
68757;SDS011;55747;51.998;4.466;2022-10-17T03:43:19;15.07;;;10.23;;
68757;SDS011;55747;51.998;4.466;2022-10-17T03:45:44;14.77;;;9.70;;
68757;SDS011;55747;51.998;4.466;2022-10-17T03:48:09;13.50;;;10.25;;
68757;SDS011;55747;51.998;4.466;2022-10-17T03:50:34;12.20;;;9.90;;
68757;SDS011;55747;51.998;4.466;2022-10-17T03:53:00;13.27;;;9.70;;
68757;SDS011;55747;51.998;4.466;2022-10-17T03:55:25;13.77;;;9.53;;
68757;SDS011;55747;51.998;4.466;2022-10-17T03:57:50;14.48;;;9.65;;
68757;SDS011;55747;51.998;4.466;2022-10-17T04:00:16;13.03;;;10.03;;
68757;SDS011;55747;51.998;4.466;2022-10-17T04:02:41;11.97;;;9.83;;
68757;SDS011;55747;51.998;4.466;2022-10-17T04:05:06;14.45;;;9.60;;
68757;SDS011;55747;51.998;4.466;2022-10-17T04:07:32;10.32;;;9.15;;
68757;SDS011;55747;51.998;4.466;2022-10-17T04:09:57;13.93;;;9.60;;
68757;SDS011;55747;51.998;4.466;2022-10-17T04:12:22;12.47;;;9.30;;
68757;SDS011;55747;51.998;4.466;2022-10-17T04:14:47;11.33;;;9.03;;
68757;SDS011;55747;51.998;4.466;2022-10-17T04:17:13;15.60;;;9.00;;
68757;SDS011;55747;51.998;4.466;2022-10-17T04:19:38;15.60;;;9.38;;
68757;SDS011;55747;51.998;4.466;2022-10-17T04:22:03;12.20;;;9.23;;
68757;SDS011;55747;51.998;4.466;2022-10-17T04:24:32;11.82;;;9.07;;
68757;SDS011;55747;51.998;4.466;2022-10-17T04:26:57;14.02;;;9.27;;
68757;SDS011;55747;51.998;4.466;2022-10-17T04:29:23;15.75;;;9.93;;
68757;SDS011;55747;51.998;4.466;2022-10-17T04:31:49;10.50;;;8.52;;
68757;SDS011;55747;51.998;4.466;2022-10-17T04:34:16;16.08;;;8.80;;
68757;SDS011;55747;51.998;4.466;2022-10-17T04:36:41;12.25;;;8.82;;
68757;SDS011;55747;51.998;4.466;2022-10-17T04:39:06;14.03;;;9.30;;
68757;SDS011;55747;51.998;4.466;2022-10-17T04:41:32;12.75;;;9.15;;
68757;SDS011;55747;51.998;4.466;2022-10-17T04:43:57;14.45;;;8.93;;
68757;SDS011;55747;51.998;4.466;2022-10-17T04:46:23;11.23;;;9.03;;
68757;SDS011;55747;51.998;4.466;2022-10-17T04:48:48;14.35;;;8.77;;
68757;SDS011;55747;51.998;4.466;2022-10-17T04:51:14;15.43;;;9.68;;
68757;SDS011;55747;51.998;4.466;2022-10-17T04:53:42;12.88;;;9.27;;
68757;SDS011;55747;51.998;4.466;2022-10-17T04:56:12;14.82;;;8.75;;
68757;SDS011;55747;51.998;4.466;2022-10-17T04:58:39;13.48;;;9.30;;
68757;SDS011;55747;51.998;4.466;2022-10-17T05:01:48;14.10;;;9.60;;
68757;SDS011;55747;51.998;4.466;2022-10-17T05:04:00;12.02;;;9.68;;
68757;SDS011;55747;51.998;4.466;2022-10-17T05:06:25;14.05;;;8.90;;
68757;SDS011;55747;51.998;4.466;2022-10-17T05:08:54;13.02;;;8.90;;
68757;SDS011;55747;51.998;4.466;2022-10-17T05:11:20;14.02;;;8.98;;
68757;SDS011;55747;51.998;4.466;2022-10-17T05:13:49;17.38;;;9.60;;
68757;SDS011;55747;51.998;4.466;2022-10-17T05:16:18;14.13;;;9.48;;
68757;SDS011;55747;51.998;4.466;2022-10-17T05:18:46;15.70;;;9.10;;
68757;SDS011;55747;51.998;4.466;2022-10-17T05:21:12;13.18;;;9.07;;
68757;SDS011;55747;51.998;4.466;2022-10-17T05:23:38;14.75;;;9.27;;
68757;SDS011;55747;51.998;4.466;2022-10-17T05:26:03;13.07;;;9.17;;
68757;SDS011;55747;51.998;4.466;2022-10-17T05:28:28;11.93;;;8.93;;
68757;SDS011;55747;51.998;4.466;2022-10-17T05:30:54;11.57;;;8.93;;
68757;SDS011;55747;51.998;4.466;2022-10-17T05:33:19;13.40;;;8.93;;
68757;SDS011;55747;51.998;4.466;2022-10-17T05:35:46;13.43;;;8.75;;
68757;SDS011;55747;51.998;4.466;2022-10-17T05:38:12;12.93;;;9.00;;
68757;SDS011;55747;51.998;4.466;2022-10-17T05:40:37;10.63;;;8.77;;
68757;SDS011;55747;51.998;4.466;2022-10-17T05:43:03;10.32;;;8.63;;
68757;SDS011;55747;51.998;4.466;2022-10-17T05:45:28;12.70;;;9.32;;
68757;SDS011;55747;51.998;4.466;2022-10-17T05:47:54;13.55;;;9.73;;
68757;SDS011;55747;51.998;4.466;2022-10-17T05:50:19;16.40;;;9.07;;
68757;SDS011;55747;51.998;4.466;2022-10-17T05:52:51;15.25;;;9.32;;
68757;SDS011;55747;51.998;4.466;2022-10-17T05:55:21;11.55;;;9.85;;
68757;SDS011;55747;51.998;4.466;2022-10-17T05:57:46;14.85;;;10.27;;
68757;SDS011;55747;51.998;4.466;2022-10-17T06:00:16;15.68;;;9.70;;
68757;SDS011;55747;51.998;4.466;2022-10-17T06:02:44;14.98;;;10.20;;
68757;SDS011;55747;51.998;4.466;2022-10-17T06:05:13;16.38;;;10.27;;
68757;SDS011;55747;51.998;4.466;2022-10-17T06:07:49;15.18;;;10.43;;
68757;SDS011;55747;51.998;4.466;2022-10-17T06:10:48;13.90;;;10.27;;
68757;SDS011;55747;51.998;4.466;2022-10-17T06:13:21;14.05;;;10.57;;
68757;SDS011;55747;51.998;4.466;2022-10-17T06:15:56;16.77;;;10.68;;
68757;SDS011;55747;51.998;4.466;2022-10-17T06:18:32;16.02;;;11.10;;
68757;SDS011;55747;51.998;4.466;2022-10-17T06:24:25;15.25;;;10.45;;
68757;SDS011;55747;51.998;4.466;2022-10-17T06:27:09;13.32;;;10.07;;
68757;SDS011;55747;51.998;4.466;2022-10-17T06:29:54;14.13;;;11.15;;
68757;SDS011;55747;51.998;4.466;2022-10-17T06:32:22;17.98;;;11.13;;
68757;SDS011;55747;51.998;4.466;2022-10-17T06:34:48;15.73;;;11.00;;
68757;SDS011;55747;51.998;4.466;2022-10-17T06:37:13;17.63;;;10.55;;
68757;SDS011;55747;51.998;4.466;2022-10-17T06:39:48;13.13;;;10.80;;
68757;SDS011;55747;51.998;4.466;2022-10-17T06:42:13;15.67;;;10.37;;
68757;SDS011;55747;51.998;4.466;2022-10-17T06:44:38;20.47;;;10.60;;
68757;SDS011;55747;51.998;4.466;2022-10-17T06:47:05;14.07;;;10.55;;
68757;SDS011;55747;51.998;4.466;2022-10-17T06:49:30;14.60;;;10.50;;
68757;SDS011;55747;51.998;4.466;2022-10-17T06:51:58;19.73;;;11.15;;
68757;SDS011;55747;51.998;4.466;2022-10-17T06:54:26;16.35;;;10.32;;
68757;SDS011;55747;51.998;4.466;2022-10-17T06:56:52;15.98;;;10.68;;
68757;SDS011;55747;51.998;4.466;2022-10-17T06:59:17;13.10;;;10.63;;
68757;SDS011;55747;51.998;4.466;2022-10-17T07:01:42;12.38;;;9.82;;
68757;SDS011;55747;51.998;4.466;2022-10-17T07:04:10;19.23;;;10.55;;
68757;SDS011;55747;51.998;4.466;2022-10-17T07:06:36;14.48;;;10.07;;
68757;SDS011;55747;51.998;4.466;2022-10-17T07:09:08;17.83;;;10.88;;
68757;SDS011;55747;51.998;4.466;2022-10-17T07:11:36;14.77;;;10.65;;
68757;SDS011;55747;51.998;4.466;2022-10-17T07:14:04;16.52;;;10.85;;
68757;SDS011;55747;51.998;4.466;2022-10-17T07:16:29;16.92;;;11.05;;
68757;SDS011;55747;51.998;4.466;2022-10-17T07:18:55;17.15;;;11.10;;
68757;SDS011;55747;51.998;4.466;2022-10-17T07:21:20;20.02;;;11.30;;
68757;SDS011;55747;51.998;4.466;2022-10-17T07:23:46;20.80;;;11.63;;
68757;SDS011;55747;51.998;4.466;2022-10-17T07:26:12;15.83;;;11.37;;
68757;SDS011;55747;51.998;4.466;2022-10-17T07:28:39;17.60;;;11.15;;
68757;SDS011;55747;51.998;4.466;2022-10-17T07:31:06;14.43;;;10.45;;
68757;SDS011;55747;51.998;4.466;2022-10-17T07:33:33;18.77;;;10.82;;
68757;SDS011;55747;51.998;4.466;2022-10-17T07:35:59;14.38;;;10.15;;
68757;SDS011;55747;51.998;4.466;2022-10-17T07:38:31;13.40;;;10.20;;
68757;SDS011;55747;51.998;4.466;2022-10-17T07:41:01;18.30;;;10.27;;
68757;SDS011;55747;51.998;4.466;2022-10-17T07:43:39;15.87;;;10.87;;
68757;SDS011;55747;51.998;4.466;2022-10-17T07:46:07;16.83;;;10.50;;
68757;SDS011;55747;51.998;4.466;2022-10-17T07:48:33;12.60;;;10.50;;
68757;SDS011;55747;51.998;4.466;2022-10-17T07:51:11;17.00;;;10.20;;
68757;SDS011;55747;51.998;4.466;2022-10-17T07:53:39;14.95;;;9.98;;
68757;SDS011;55747;51.998;4.466;2022-10-17T07:56:05;15.77;;;10.07;;
68757;SDS011;55747;51.998;4.466;2022-10-17T07:58:33;15.00;;;10.38;;
68757;SDS011;55747;51.998;4.466;2022-10-17T08:01:07;14.57;;;10.73;;
68757;SDS011;55747;51.998;4.466;2022-10-17T08:04:00;14.00;;;10.60;;
68757;SDS011;55747;51.998;4.466;2022-10-17T08:06:53;16.58;;;11.55;;
68757;SDS011;55747;51.998;4.466;2022-10-17T08:09:27;16.25;;;11.30;;
68757;SDS011;55747;51.998;4.466;2022-10-17T08:11:52;17.92;;;11.18;;
68757;SDS011;55747;51.998;4.466;2022-10-17T08:14:23;18.20;;;10.88;;
68757;SDS011;55747;51.998;4.466;2022-10-17T08:16:52;19.05;;;11.32;;
68757;SDS011;55747;51.998;4.466;2022-10-17T08:19:41;15.93;;;10.98;;
68757;SDS011;55747;51.998;4.466;2022-10-17T08:22:09;15.30;;;11.57;;
68757;SDS011;55747;51.998;4.466;2022-10-17T08:24:52;17.88;;;11.90;;
68757;SDS011;55747;51.998;4.466;2022-10-17T08:31:37;19.45;;;12.00;;
68757;SDS011;55747;51.998;4.466;2022-10-17T08:38:54;15.65;;;11.52;;
68757;SDS011;55747;51.998;4.466;2022-10-17T08:54:16;17.13;;;12.20;;
68757;SDS011;55747;51.998;4.466;2022-10-17T09:34:48;14.43;;;10.05;;
68757;SDS011;55747;51.998;4.466;2022-10-17T09:37:45;13.07;;;8.98;;
68757;SDS011;55747;51.998;4.466;2022-10-17T09:40:25;11.38;;;8.60;;
68757;SDS011;55747;51.998;4.466;2022-10-17T09:42:58;14.40;;;9.43;;
68757;SDS011;55747;51.998;4.466;2022-10-17T09:45:32;14.07;;;9.50;;
68757;SDS011;55747;51.998;4.466;2022-10-17T09:51:48;14.45;;;9.52;;
68757;SDS011;55747;51.998;4.466;2022-10-17T09:54:35;14.18;;;10.40;;
68757;SDS011;55747;51.998;4.466;2022-10-17T09:57:17;14.97;;;9.20;;
68757;SDS011;55747;51.998;4.466;2022-10-17T10:03:16;15.60;;;9.05;;
68757;SDS011;55747;51.998;4.466;2022-10-17T10:06:34;17.85;;;8.77;;
68757;SDS011;55747;51.998;4.466;2022-10-17T10:12:38;13.88;;;8.32;;
68757;SDS011;55747;51.998;4.466;2022-10-17T10:15:36;14.70;;;9.82;;
68757;SDS011;55747;51.998;4.466;2022-10-17T10:21:08;12.55;;;9.23;;
68757;SDS011;55747;51.998;4.466;2022-10-17T10:23:36;11.73;;;9.13;;
68757;SDS011;55747;51.998;4.466;2022-10-17T10:26:23;13.35;;;9.10;;
68757;SDS011;55747;51.998;4.466;2022-10-17T10:32:34;11.68;;;8.02;;
68757;SDS011;55747;51.998;4.466;2022-10-17T10:48:57;12.70;;;7.60;;
68757;SDS011;55747;51.998;4.466;2022-10-17T10:55:47;8.38;;;4.72;;
68757;SDS011;55747;51.998;4.466;2022-10-17T11:01:11;6.63;;;4.00;;
68757;SDS011;55747;51.998;4.466;2022-10-17T11:04:10;10.07;;;3.50;;
68757;SDS011;55747;51.998;4.466;2022-10-17T11:06:43;10.10;;;3.55;;
68757;SDS011;55747;51.998;4.466;2022-10-17T11:19:55;8.40;;;3.70;;
68757;SDS011;55747;51.998;4.466;2022-10-17T11:22:36;5.28;;;3.17;;
68757;SDS011;55747;51.998;4.466;2022-10-17T11:25:14;6.40;;;3.45;;
68757;SDS011;55747;51.998;4.466;2022-10-17T11:27:48;6.72;;;3.55;;
68757;SDS011;55747;51.998;4.466;2022-10-17T11:30:14;4.20;;;3.78;;
68757;SDS011;55747;51.998;4.466;2022-10-17T11:32:57;6.18;;;3.88;;
68757;SDS011;55747;51.998;4.466;2022-10-17T11:35:27;5.97;;;4.05;;
68757;SDS011;55747;51.998;4.466;2022-10-17T11:41:08;8.00;;;5.15;;
68757;SDS011;55747;51.998;4.466;2022-10-17T11:43:44;7.43;;;4.97;;
68757;SDS011;55747;51.998;4.466;2022-10-17T11:46:22;8.48;;;5.70;;
68757;SDS011;55747;51.998;4.466;2022-10-17T11:49:08;8.98;;;5.88;;
68757;SDS011;55747;51.998;4.466;2022-10-17T11:51:49;7.78;;;5.68;;
68757;SDS011;55747;51.998;4.466;2022-10-17T11:54:23;8.43;;;5.50;;
68757;SDS011;55747;51.998;4.466;2022-10-17T12:00:24;6.22;;;4.60;;
68757;SDS011;55747;51.998;4.466;2022-10-17T12:11:53;9.75;;;4.32;;
68757;SDS011;55747;51.998;4.466;2022-10-17T12:17:03;7.53;;;3.65;;
68757;SDS011;55747;51.998;4.466;2022-10-17T12:19:31;6.85;;;4.38;;
68757;SDS011;55747;51.998;4.466;2022-10-17T12:22:02;8.40;;;4.15;;
68757;SDS011;55747;51.998;4.466;2022-10-17T12:24:41;4.97;;;3.83;;
68757;SDS011;55747;51.998;4.466;2022-10-17T12:35:29;8.13;;;3.92;;
68757;SDS011;55747;51.998;4.466;2022-10-17T12:38:02;8.80;;;4.28;;
68757;SDS011;55747;51.998;4.466;2022-10-17T12:40:48;6.13;;;4.20;;
68757;SDS011;55747;51.998;4.466;2022-10-17T12:43:31;7.03;;;3.97;;
68757;SDS011;55747;51.998;4.466;2022-10-17T13:02:55;6.90;;;3.78;;
68757;SDS011;55747;51.998;4.466;2022-10-17T13:05:29;5.18;;;4.05;;
68757;SDS011;55747;51.998;4.466;2022-10-17T13:10:57;7.95;;;3.90;;
68757;SDS011;55747;51.998;4.466;2022-10-17T13:16:29;8.13;;;3.72;;
68757;SDS011;55747;51.998;4.466;2022-10-17T13:18:59;5.45;;;3.90;;
68757;SDS011;55747;51.998;4.466;2022-10-17T13:21:48;9.80;;;4.07;;
68757;SDS011;55747;51.998;4.466;2022-10-17T13:26:55;6.18;;;3.78;;
68757;SDS011;55747;51.998;4.466;2022-10-17T13:29:23;6.55;;;3.80;;
68757;SDS011;55747;51.998;4.466;2022-10-17T13:31:59;5.72;;;3.28;;
68757;SDS011;55747;51.998;4.466;2022-10-17T13:34:36;5.65;;;3.17;;
68757;SDS011;55747;51.998;4.466;2022-10-17T13:37:10;6.10;;;3.20;;
68757;SDS011;55747;51.998;4.466;2022-10-17T13:39:44;4.72;;;3.20;;
68757;SDS011;55747;51.998;4.466;2022-10-17T13:45:15;4.72;;;2.80;;
68757;SDS011;55747;51.998;4.466;2022-10-17T13:47:44;5.25;;;2.72;;
68757;SDS011;55747;51.998;4.466;2022-10-17T13:50:23;6.88;;;2.47;;
68757;SDS011;55747;51.998;4.466;2022-10-17T13:56:00;6.25;;;2.80;;
68757;SDS011;55747;51.998;4.466;2022-10-17T13:58:31;5.05;;;2.35;;
68757;SDS011;55747;51.998;4.466;2022-10-17T14:01:03;5.78;;;2.58;;
68757;SDS011;55747;51.998;4.466;2022-10-17T14:03:29;5.65;;;2.40;;
68757;SDS011;55747;51.998;4.466;2022-10-17T14:06:04;7.35;;;2.78;;
68757;SDS011;55747;51.998;4.466;2022-10-17T14:11:25;7.32;;;2.60;;
68757;SDS011;55747;51.998;4.466;2022-10-17T14:13:54;5.20;;;2.60;;
68757;SDS011;55747;51.998;4.466;2022-10-17T14:16:21;7.00;;;2.45;;
68757;SDS011;55747;51.998;4.466;2022-10-17T14:18:48;5.80;;;2.65;;
68757;SDS011;55747;51.998;4.466;2022-10-17T14:21:19;6.35;;;2.92;;
68757;SDS011;55747;51.998;4.466;2022-10-17T14:23:47;7.65;;;2.80;;
68757;SDS011;55747;51.998;4.466;2022-10-17T14:28:38;9.90;;;2.93;;
68757;SDS011;55747;51.998;4.466;2022-10-17T14:33:49;9.48;;;2.58;;
68757;SDS011;55747;51.998;4.466;2022-10-17T14:36:16;5.13;;;2.38;;
68757;SDS011;55747;51.998;4.466;2022-10-17T14:38:49;6.28;;;2.80;;
68757;SDS011;55747;51.998;4.466;2022-10-17T14:41:20;6.18;;;2.55;;
68757;SDS011;55747;51.998;4.466;2022-10-17T14:43:59;6.32;;;2.88;;
68757;SDS011;55747;51.998;4.466;2022-10-17T14:46:30;6.38;;;2.70;;
68757;SDS011;55747;51.998;4.466;2022-10-17T14:49:17;7.07;;;2.70;;
68757;SDS011;55747;51.998;4.466;2022-10-17T14:54:47;5.85;;;2.40;;
68757;SDS011;55747;51.998;4.466;2022-10-17T14:57:16;4.68;;;2.53;;
68757;SDS011;55747;51.998;4.466;2022-10-17T14:59:49;6.03;;;2.38;;
68757;SDS011;55747;51.998;4.466;2022-10-17T15:02:15;5.03;;;2.40;;
68757;SDS011;55747;51.998;4.466;2022-10-17T15:04:40;6.00;;;2.60;;
68757;SDS011;55747;51.998;4.466;2022-10-17T15:07:06;5.75;;;2.50;;
68757;SDS011;55747;51.998;4.466;2022-10-17T15:09:34;4.53;;;2.38;;
68757;SDS011;55747;51.998;4.466;2022-10-17T15:12:03;6.97;;;2.73;;
68757;SDS011;55747;51.998;4.466;2022-10-17T15:14:31;7.75;;;2.67;;
68757;SDS011;55747;51.998;4.466;2022-10-17T15:16:56;6.75;;;2.63;;
68757;SDS011;55747;51.998;4.466;2022-10-17T15:19:21;5.67;;;2.70;;
68757;SDS011;55747;51.998;4.466;2022-10-17T15:21:46;6.53;;;2.60;;
68757;SDS011;55747;51.998;4.466;2022-10-17T15:24:12;10.47;;;2.93;;
68757;SDS011;55747;51.998;4.466;2022-10-17T15:26:38;6.45;;;2.88;;
68757;SDS011;55747;51.998;4.466;2022-10-17T15:29:04;8.10;;;3.13;;
68757;SDS011;55747;51.998;4.466;2022-10-17T15:31:29;6.65;;;3.33;;
68757;SDS011;55747;51.998;4.466;2022-10-17T15:33:55;5.63;;;3.17;;
68757;SDS011;55747;51.998;4.466;2022-10-17T15:36:24;7.60;;;2.83;;
68757;SDS011;55747;51.998;4.466;2022-10-17T15:41:23;6.47;;;2.67;;
68757;SDS011;55747;51.998;4.466;2022-10-17T15:43:50;6.63;;;3.13;;
68757;SDS011;55747;51.998;4.466;2022-10-17T15:46:20;7.40;;;2.90;;
68757;SDS011;55747;51.998;4.466;2022-10-17T15:48:47;10.45;;;3.22;;
68757;SDS011;55747;51.998;4.466;2022-10-17T15:51:13;6.20;;;3.05;;
68757;SDS011;55747;51.998;4.466;2022-10-17T15:53:39;5.45;;;2.40;;
68757;SDS011;55747;51.998;4.466;2022-10-17T15:56:05;7.50;;;2.60;;
68757;SDS011;55747;51.998;4.466;2022-10-17T15:58:38;7.45;;;2.75;;
68757;SDS011;55747;51.998;4.466;2022-10-17T16:01:10;5.88;;;2.30;;
68757;SDS011;55747;51.998;4.466;2022-10-17T16:03:43;9.98;;;2.78;;
68757;SDS011;55747;51.998;4.466;2022-10-17T16:06:11;8.48;;;2.42;;
68757;SDS011;55747;51.998;4.466;2022-10-17T16:08:36;4.47;;;2.40;;
68757;SDS011;55747;51.998;4.466;2022-10-17T16:11:01;5.20;;;2.13;;
68757;SDS011;55747;51.998;4.466;2022-10-17T16:13:27;5.47;;;2.03;;
68757;SDS011;55747;51.998;4.466;2022-10-17T16:16:01;6.43;;;2.17;;
68757;SDS011;55747;51.998;4.466;2022-10-17T16:18:26;6.47;;;2.05;;
68757;SDS011;55747;51.998;4.466;2022-10-17T16:20:52;4.88;;;1.80;;
68757;SDS011;55747;51.998;4.466;2022-10-17T16:23:20;8.30;;;1.85;;
68757;SDS011;55747;51.998;4.466;2022-10-17T16:25:45;7.53;;;1.90;;
68757;SDS011;55747;51.998;4.466;2022-10-17T16:28:14;7.80;;;1.83;;
68757;SDS011;55747;51.998;4.466;2022-10-17T16:30:40;8.40;;;1.70;;
68757;SDS011;55747;51.998;4.466;2022-10-17T16:33:08;5.35;;;2.00;;
68757;SDS011;55747;51.998;4.466;2022-10-17T16:35:34;8.00;;;1.80;;
68757;SDS011;55747;51.998;4.466;2022-10-17T16:37:59;7.07;;;2.10;;
68757;SDS011;55747;51.998;4.466;2022-10-17T16:40:28;6.10;;;1.88;;
68757;SDS011;55747;51.998;4.466;2022-10-17T16:42:54;7.60;;;2.20;;
68757;SDS011;55747;51.998;4.466;2022-10-17T16:45:20;6.10;;;1.95;;
68757;SDS011;55747;51.998;4.466;2022-10-17T16:47:47;10.50;;;2.70;;
68757;SDS011;55747;51.998;4.466;2022-10-17T16:50:21;7.28;;;2.40;;
68757;SDS011;55747;51.998;4.466;2022-10-17T16:52:50;9.80;;;2.25;;
68757;SDS011;55747;51.998;4.466;2022-10-17T16:55:15;6.90;;;2.40;;
68757;SDS011;55747;51.998;4.466;2022-10-17T16:57:42;5.30;;;2.10;;
68757;SDS011;55747;51.998;4.466;2022-10-17T17:00:09;7.05;;;2.20;;
68757;SDS011;55747;51.998;4.466;2022-10-17T17:02:36;5.93;;;2.28;;
68757;SDS011;55747;51.998;4.466;2022-10-17T17:05:04;7.30;;;2.47;;
68757;SDS011;55747;51.998;4.466;2022-10-17T17:07:33;10.98;;;2.72;;
68757;SDS011;55747;51.998;4.466;2022-10-17T17:09:59;10.73;;;2.38;;
68757;SDS011;55747;51.998;4.466;2022-10-17T17:12:28;7.50;;;2.22;;
68757;SDS011;55747;51.998;4.466;2022-10-17T17:15:02;6.00;;;2.33;;
68757;SDS011;55747;51.998;4.466;2022-10-17T17:31:54;9.98;;;3.67;;
68757;SDS011;55747;51.998;4.466;2022-10-17T17:34:51;12.48;;;5.28;;
68757;SDS011;55747;51.998;4.466;2022-10-17T17:37:29;9.98;;;4.22;;
68757;SDS011;55747;51.998;4.466;2022-10-17T17:40:13;12.10;;;3.40;;
68757;SDS011;55747;51.998;4.466;2022-10-17T17:52:33;5.65;;;3.17;;
68757;SDS011;55747;51.998;4.466;2022-10-17T17:55:09;6.85;;;2.70;;
68757;SDS011;55747;51.998;4.466;2022-10-17T17:58:36;9.23;;;3.20;;
68757;SDS011;55747;51.998;4.466;2022-10-17T18:01:29;10.48;;;3.42;;
68757;SDS011;55747;51.998;4.466;2022-10-17T18:07:51;9.38;;;3.28;;
68757;SDS011;55747;51.998;4.466;2022-10-17T18:10:37;8.40;;;3.17;;
68757;SDS011;55747;51.998;4.466;2022-10-17T18:13:19;10.45;;;3.40;;
68757;SDS011;55747;51.998;4.466;2022-10-17T18:15:54;12.18;;;3.55;;
68757;SDS011;55747;51.998;4.466;2022-10-17T18:18:44;12.38;;;4.43;;
68757;SDS011;55747;51.998;4.466;2022-10-17T18:21:38;10.68;;;4.57;;
68757;SDS011;55747;51.998;4.466;2022-10-17T18:24:37;9.18;;;3.92;;
68757;SDS011;55747;51.998;4.466;2022-10-17T18:30:34;13.27;;;4.00;;
68757;SDS011;55747;51.998;4.466;2022-10-17T18:36:45;7.13;;;3.78;;
68757;SDS011;55747;51.998;4.466;2022-10-17T18:42:42;12.38;;;4.45;;
68757;SDS011;55747;51.998;4.466;2022-10-17T18:45:27;11.23;;;4.25;;
68757;SDS011;55747;51.998;4.466;2022-10-17T18:48:31;11.27;;;4.45;;
68757;SDS011;55747;51.998;4.466;2022-10-17T18:59:06;12.57;;;4.60;;
68757;SDS011;55747;51.998;4.466;2022-10-17T19:01:35;13.63;;;5.20;;
68757;SDS011;55747;51.998;4.466;2022-10-17T19:04:21;9.55;;;4.97;;
68757;SDS011;55747;51.998;4.466;2022-10-17T19:13:36;8.68;;;5.30;;
68757;SDS011;55747;51.998;4.466;2022-10-17T19:16:15;12.27;;;5.22;;